sensor_id;sensor_type;location;lat;lon;timestamp;P1;durP1;ratioP1;P2;durP2;ratioP2
69197;SDS011;56311;50.298;8.514;2023-02-01T00:02:09;11.88;;;3.90;;
69197;SDS011;56311;50.298;8.514;2023-02-01T00:04:35;11.25;;;4.43;;
69197;SDS011;56311;50.298;8.514;2023-02-01T00:07:02;8.32;;;3.90;;
69197;SDS011;56311;50.298;8.514;2023-02-01T00:09:28;10.77;;;4.20;;
69197;SDS011;56311;50.298;8.514;2023-02-01T00:11:55;10.27;;;4.10;;
69197;SDS011;56311;50.298;8.514;2023-02-01T00:14:25;12.20;;;4.70;;
69197;SDS011;56311;50.298;8.514;2023-02-01T00:16:52;11.05;;;4.75;;
69197;SDS011;56311;50.298;8.514;2023-02-01T00:19:20;10.68;;;5.10;;
69197;SDS011;56311;50.298;8.514;2023-02-01T00:21:47;11.93;;;4.50;;
69197;SDS011;56311;50.298;8.514;2023-02-01T00:24:14;13.93;;;5.35;;
69197;SDS011;56311;50.298;8.514;2023-02-01T00:26:41;10.88;;;5.18;;
69197;SDS011;56311;50.298;8.514;2023-02-01T00:29:09;10.45;;;5.50;;
69197;SDS011;56311;50.298;8.514;2023-02-01T00:31:36;11.40;;;5.70;;
69197;SDS011;56311;50.298;8.514;2023-02-01T00:34:03;9.98;;;5.13;;
69197;SDS011;56311;50.298;8.514;2023-02-01T00:36:31;11.27;;;5.55;;
69197;SDS011;56311;50.298;8.514;2023-02-01T00:38:57;9.75;;;5.45;;
69197;SDS011;56311;50.298;8.514;2023-02-01T00:41:24;11.98;;;6.63;;
69197;SDS011;56311;50.298;8.514;2023-02-01T00:43:50;12.43;;;6.15;;
69197;SDS011;56311;50.298;8.514;2023-02-01T00:46:18;9.18;;;5.43;;
69197;SDS011;56311;50.298;8.514;2023-02-01T00:48:44;9.88;;;5.90;;
69197;SDS011;56311;50.298;8.514;2023-02-01T00:51:12;13.20;;;5.78;;
69197;SDS011;56311;50.298;8.514;2023-02-01T00:53:40;13.13;;;6.00;;
69197;SDS011;56311;50.298;8.514;2023-02-01T00:56:07;10.43;;;5.80;;
69197;SDS011;56311;50.298;8.514;2023-02-01T00:58:34;10.43;;;5.78;;
69197;SDS011;56311;50.298;8.514;2023-02-01T01:01:01;9.45;;;5.57;;
69197;SDS011;56311;50.298;8.514;2023-02-01T01:03:29;11.40;;;5.50;;
69197;SDS011;56311;50.298;8.514;2023-02-01T01:05:59;11.88;;;5.22;;
69197;SDS011;56311;50.298;8.514;2023-02-01T01:08:26;10.95;;;5.50;;
69197;SDS011;56311;50.298;8.514;2023-02-01T01:10:54;11.07;;;5.20;;
69197;SDS011;56311;50.298;8.514;2023-02-01T01:13:21;10.90;;;5.50;;
69197;SDS011;56311;50.298;8.514;2023-02-01T01:15:47;10.00;;;5.18;;
69197;SDS011;56311;50.298;8.514;2023-02-01T01:18:14;11.82;;;4.85;;
69197;SDS011;56311;50.298;8.514;2023-02-01T01:20:41;10.85;;;5.18;;
69197;SDS011;56311;50.298;8.514;2023-02-01T01:23:08;9.88;;;5.00;;
69197;SDS011;56311;50.298;8.514;2023-02-01T01:25:36;11.88;;;5.22;;
69197;SDS011;56311;50.298;8.514;2023-02-01T01:28:04;9.70;;;4.70;;
69197;SDS011;56311;50.298;8.514;2023-02-01T01:30:31;9.02;;;4.72;;
69197;SDS011;56311;50.298;8.514;2023-02-01T01:32:57;10.50;;;4.72;;
69197;SDS011;56311;50.298;8.514;2023-02-01T01:35:24;10.00;;;4.70;;
69197;SDS011;56311;50.298;8.514;2023-02-01T01:37:50;9.25;;;4.95;;
69197;SDS011;56311;50.298;8.514;2023-02-01T01:40:17;12.13;;;4.75;;
69197;SDS011;56311;50.298;8.514;2023-02-01T01:42:43;7.38;;;4.50;;
69197;SDS011;56311;50.298;8.514;2023-02-01T01:45:18;9.15;;;4.40;;
69197;SDS011;56311;50.298;8.514;2023-02-01T01:47:47;10.68;;;5.13;;
69197;SDS011;56311;50.298;8.514;2023-02-01T01:50:15;8.35;;;4.72;;
69197;SDS011;56311;50.298;8.514;2023-02-01T01:52:43;9.25;;;4.95;;
69197;SDS011;56311;50.298;8.514;2023-02-01T01:55:10;9.55;;;5.13;;
69197;SDS011;56311;50.298;8.514;2023-02-01T01:57:37;9.20;;;4.95;;
69197;SDS011;56311;50.298;8.514;2023-02-01T02:00:05;10.15;;;5.13;;
69197;SDS011;56311;50.298;8.514;2023-02-01T02:02:34;10.65;;;5.38;;
69197;SDS011;56311;50.298;8.514;2023-02-01T02:05:02;11.45;;;5.30;;
69197;SDS011;56311;50.298;8.514;2023-02-01T02:07:30;8.82;;;5.18;;
69197;SDS011;56311;50.298;8.514;2023-02-01T02:09:57;11.63;;;5.13;;
69197;SDS011;56311;50.298;8.514;2023-02-01T02:12:27;13.65;;;4.70;;
69197;SDS011;56311;50.298;8.514;2023-02-01T02:14:53;9.00;;;4.80;;
69197;SDS011;56311;50.298;8.514;2023-02-01T02:17:23;10.02;;;4.40;;
69197;SDS011;56311;50.298;8.514;2023-02-01T02:20:14;10.98;;;4.93;;
69197;SDS011;56311;50.298;8.514;2023-02-01T02:22:48;9.70;;;4.30;;
69197;SDS011;56311;50.298;8.514;2023-02-01T02:28:11;11.48;;;4.68;;
69197;SDS011;56311;50.298;8.514;2023-02-01T02:30:55;11.00;;;4.07;;
69197;SDS011;56311;50.298;8.514;2023-02-01T02:33:35;9.20;;;3.90;;
69197;SDS011;56311;50.298;8.514;2023-02-01T02:36:06;8.20;;;3.95;;
69197;SDS011;56311;50.298;8.514;2023-02-01T02:38:36;9.38;;;4.63;;
69197;SDS011;56311;50.298;8.514;2023-02-01T02:41:08;11.43;;;4.22;;
69197;SDS011;56311;50.298;8.514;2023-02-01T02:43:37;15.10;;;4.32;;
69197;SDS011;56311;50.298;8.514;2023-02-01T02:46:31;12.23;;;3.63;;
69197;SDS011;56311;50.298;8.514;2023-02-01T02:49:20;15.35;;;4.47;;
69197;SDS011;56311;50.298;8.514;2023-02-01T02:51:50;9.73;;;3.40;;
69197;SDS011;56311;50.298;8.514;2023-02-01T02:54:36;9.98;;;3.80;;
69197;SDS011;56311;50.298;8.514;2023-02-01T02:57:14;10.00;;;3.50;;
69197;SDS011;56311;50.298;8.514;2023-02-01T03:00:00;14.80;;;4.70;;
69197;SDS011;56311;50.298;8.514;2023-02-01T03:02:46;10.32;;;3.78;;
69197;SDS011;56311;50.298;8.514;2023-02-01T03:05:33;13.93;;;3.70;;
69197;SDS011;56311;50.298;8.514;2023-02-01T03:08:04;8.18;;;3.40;;
69197;SDS011;56311;50.298;8.514;2023-02-01T03:10:37;11.43;;;3.50;;
69197;SDS011;56311;50.298;8.514;2023-02-01T03:13:07;9.88;;;3.58;;
69197;SDS011;56311;50.298;8.514;2023-02-01T03:15:36;12.57;;;3.60;;
69197;SDS011;56311;50.298;8.514;2023-02-01T03:18:03;13.55;;;4.40;;
69197;SDS011;56311;50.298;8.514;2023-02-01T03:20:30;8.05;;;3.08;;
69197;SDS011;56311;50.298;8.514;2023-02-01T03:22:59;12.35;;;3.20;;
69197;SDS011;56311;50.298;8.514;2023-02-01T03:25:27;12.75;;;3.22;;
69197;SDS011;56311;50.298;8.514;2023-02-01T03:27:57;10.15;;;3.40;;
69197;SDS011;56311;50.298;8.514;2023-02-01T03:30:24;10.05;;;3.05;;
69197;SDS011;56311;50.298;8.514;2023-02-01T03:32:52;12.10;;;2.60;;
69197;SDS011;56311;50.298;8.514;2023-02-01T03:37:52;8.10;;;2.90;;
69197;SDS011;56311;50.298;8.514;2023-02-01T03:40:21;10.05;;;3.03;;
69197;SDS011;56311;50.298;8.514;2023-02-01T03:42:50;11.82;;;3.08;;
69197;SDS011;56311;50.298;8.514;2023-02-01T03:45:20;14.77;;;3.40;;
69197;SDS011;56311;50.298;8.514;2023-02-01T03:47:50;12.35;;;2.92;;
69197;SDS011;56311;50.298;8.514;2023-02-01T03:50:19;10.48;;;2.85;;
69197;SDS011;56311;50.298;8.514;2023-02-01T03:52:50;10.55;;;2.90;;
69197;SDS011;56311;50.298;8.514;2023-02-01T03:55:18;9.93;;;2.50;;
69197;SDS011;56311;50.298;8.514;2023-02-01T03:57:49;15.52;;;2.80;;
69197;SDS011;56311;50.298;8.514;2023-02-01T04:00:18;10.55;;;2.45;;
69197;SDS011;56311;50.298;8.514;2023-02-01T04:02:45;11.93;;;2.80;;
69197;SDS011;56311;50.298;8.514;2023-02-01T04:05:12;10.68;;;3.03;;
69197;SDS011;56311;50.298;8.514;2023-02-01T04:07:38;12.45;;;3.03;;
69197;SDS011;56311;50.298;8.514;2023-02-01T04:10:05;13.13;;;2.95;;
69197;SDS011;56311;50.298;8.514;2023-02-01T04:12:31;10.00;;;2.70;;
69197;SDS011;56311;50.298;8.514;2023-02-01T04:14:59;10.38;;;2.65;;
69197;SDS011;56311;50.298;8.514;2023-02-01T04:17:26;13.15;;;2.83;;
69197;SDS011;56311;50.298;8.514;2023-02-01T04:19:52;11.35;;;3.78;;
69197;SDS011;56311;50.298;8.514;2023-02-01T04:22:20;15.35;;;3.50;;
69197;SDS011;56311;50.298;8.514;2023-02-01T04:24:47;9.57;;;3.05;;
69197;SDS011;56311;50.298;8.514;2023-02-01T04:27:13;11.07;;;3.22;;
69197;SDS011;56311;50.298;8.514;2023-02-01T04:29:40;14.68;;;3.38;;
69197;SDS011;56311;50.298;8.514;2023-02-01T04:32:08;13.43;;;3.15;;
69197;SDS011;56311;50.298;8.514;2023-02-01T04:34:35;14.43;;;3.60;;
69197;SDS011;56311;50.298;8.514;2023-02-01T04:37:01;11.65;;;3.20;;
69197;SDS011;56311;50.298;8.514;2023-02-01T04:39:28;13.60;;;3.40;;
69197;SDS011;56311;50.298;8.514;2023-02-01T04:41:55;9.30;;;2.90;;
69197;SDS011;56311;50.298;8.514;2023-02-01T04:44:21;10.88;;;3.40;;
69197;SDS011;56311;50.298;8.514;2023-02-01T04:46:48;16.83;;;3.17;;
69197;SDS011;56311;50.298;8.514;2023-02-01T04:49:16;10.52;;;2.75;;
69197;SDS011;56311;50.298;8.514;2023-02-01T04:51:42;13.32;;;3.22;;
69197;SDS011;56311;50.298;8.514;2023-02-01T04:54:09;13.73;;;2.90;;
69197;SDS011;56311;50.298;8.514;2023-02-01T04:56:37;13.20;;;3.17;;
69197;SDS011;56311;50.298;8.514;2023-02-01T04:59:04;13.27;;;3.20;;
69197;SDS011;56311;50.298;8.514;2023-02-01T05:01:30;14.00;;;2.72;;
69197;SDS011;56311;50.298;8.514;2023-02-01T05:03:57;11.80;;;2.60;;
69197;SDS011;56311;50.298;8.514;2023-02-01T05:06:25;14.93;;;2.72;;
69197;SDS011;56311;50.298;8.514;2023-02-01T05:08:51;13.75;;;2.90;;
69197;SDS011;56311;50.298;8.514;2023-02-01T05:11:18;22.13;;;2.75;;
69197;SDS011;56311;50.298;8.514;2023-02-01T05:14:03;11.05;;;2.92;;
69197;SDS011;56311;50.298;8.514;2023-02-01T05:16:29;14.18;;;2.88;;
69197;SDS011;56311;50.298;8.514;2023-02-01T05:18:56;10.63;;;2.67;;
69197;SDS011;56311;50.298;8.514;2023-02-01T05:21:22;12.32;;;2.40;;
69197;SDS011;56311;50.298;8.514;2023-02-01T05:23:50;14.73;;;2.80;;
69197;SDS011;56311;50.298;8.514;2023-02-01T05:26:35;16.15;;;2.97;;
69197;SDS011;56311;50.298;8.514;2023-02-01T05:29:02;14.02;;;2.30;;
69197;SDS011;56311;50.298;8.514;2023-02-01T05:31:29;14.13;;;3.10;;
69197;SDS011;56311;50.298;8.514;2023-02-01T05:33:55;16.05;;;2.60;;
69197;SDS011;56311;50.298;8.514;2023-02-01T05:36:22;13.35;;;2.13;;
69197;SDS011;56311;50.298;8.514;2023-02-01T05:38:48;13.68;;;2.97;;
69197;SDS011;56311;50.298;8.514;2023-02-01T05:41:16;14.77;;;3.13;;
69197;SDS011;56311;50.298;8.514;2023-02-01T05:43:43;14.27;;;2.88;;
69197;SDS011;56311;50.298;8.514;2023-02-01T05:46:09;15.25;;;2.50;;
69197;SDS011;56311;50.298;8.514;2023-02-01T05:48:39;8.98;;;2.45;;
69197;SDS011;56311;50.298;8.514;2023-02-01T05:51:06;14.00;;;2.80;;
69197;SDS011;56311;50.298;8.514;2023-02-01T05:53:32;17.95;;;3.92;;
69197;SDS011;56311;50.298;8.514;2023-02-01T05:55:59;15.85;;;2.83;;
69197;SDS011;56311;50.298;8.514;2023-02-01T05:58:27;20.13;;;3.30;;
69197;SDS011;56311;50.298;8.514;2023-02-01T06:00:53;15.73;;;3.25;;
69197;SDS011;56311;50.298;8.514;2023-02-01T06:03:19;18.20;;;3.15;;
69197;SDS011;56311;50.298;8.514;2023-02-01T06:05:46;13.95;;;3.00;;
69197;SDS011;56311;50.298;8.514;2023-02-01T06:08:13;14.88;;;2.70;;
69197;SDS011;56311;50.298;8.514;2023-02-01T06:10:40;18.90;;;3.38;;
69197;SDS011;56311;50.298;8.514;2023-02-01T06:13:06;13.15;;;2.75;;
69197;SDS011;56311;50.298;8.514;2023-02-01T06:15:35;11.85;;;2.67;;
69197;SDS011;56311;50.298;8.514;2023-02-01T06:18:03;18.98;;;3.13;;
69197;SDS011;56311;50.298;8.514;2023-02-01T06:20:30;14.90;;;3.40;;
69197;SDS011;56311;50.298;8.514;2023-02-01T06:22:56;16.85;;;3.65;;
69197;SDS011;56311;50.298;8.514;2023-02-01T06:25:23;11.77;;;3.28;;
69197;SDS011;56311;50.298;8.514;2023-02-01T06:27:49;15.18;;;2.92;;
69197;SDS011;56311;50.298;8.514;2023-02-01T06:30:16;20.13;;;3.30;;
69197;SDS011;56311;50.298;8.514;2023-02-01T06:32:44;17.60;;;3.95;;
69197;SDS011;56311;50.298;8.514;2023-02-01T06:35:10;12.70;;;3.00;;
69197;SDS011;56311;50.298;8.514;2023-02-01T06:37:42;15.25;;;3.20;;
69197;SDS011;56311;50.298;8.514;2023-02-01T06:40:09;12.07;;;2.90;;
69197;SDS011;56311;50.298;8.514;2023-02-01T06:42:35;15.77;;;3.70;;
69197;SDS011;56311;50.298;8.514;2023-02-01T06:45:02;15.82;;;2.80;;
69197;SDS011;56311;50.298;8.514;2023-02-01T06:47:28;14.57;;;4.15;;
69197;SDS011;56311;50.298;8.514;2023-02-01T06:49:56;16.52;;;3.60;;
69197;SDS011;56311;50.298;8.514;2023-02-01T06:52:23;14.85;;;3.40;;
69197;SDS011;56311;50.298;8.514;2023-02-01T06:54:49;12.27;;;2.90;;
69197;SDS011;56311;50.298;8.514;2023-02-01T06:57:16;18.70;;;2.80;;
69197;SDS011;56311;50.298;8.514;2023-02-01T06:59:42;12.20;;;2.95;;
69197;SDS011;56311;50.298;8.514;2023-02-01T07:02:09;15.82;;;2.70;;
69197;SDS011;56311;50.298;8.514;2023-02-01T07:04:36;13.88;;;2.90;;
69197;SDS011;56311;50.298;8.514;2023-02-01T07:07:03;11.18;;;2.65;;
69197;SDS011;56311;50.298;8.514;2023-02-01T07:09:30;13.15;;;3.08;;
69197;SDS011;56311;50.298;8.514;2023-02-01T07:11:56;15.48;;;2.70;;
69197;SDS011;56311;50.298;8.514;2023-02-01T07:14:23;13.70;;;2.85;;
69197;SDS011;56311;50.298;8.514;2023-02-01T07:16:49;17.38;;;3.40;;
69197;SDS011;56311;50.298;8.514;2023-02-01T07:19:17;10.32;;;2.80;;
69197;SDS011;56311;50.298;8.514;2023-02-01T07:21:43;12.98;;;2.67;;
69197;SDS011;56311;50.298;8.514;2023-02-01T07:24:11;10.60;;;2.63;;
69197;SDS011;56311;50.298;8.514;2023-02-01T07:26:37;13.77;;;2.80;;
69197;SDS011;56311;50.298;8.514;2023-02-01T07:29:04;11.55;;;2.55;;
69197;SDS011;56311;50.298;8.514;2023-02-01T07:31:30;9.63;;;2.30;;
69197;SDS011;56311;50.298;8.514;2023-02-01T07:33:57;13.70;;;3.15;;
69197;SDS011;56311;50.298;8.514;2023-02-01T07:36:24;12.18;;;2.90;;
69197;SDS011;56311;50.298;8.514;2023-02-01T07:38:51;12.30;;;2.35;;
69197;SDS011;56311;50.298;8.514;2023-02-01T07:41:23;16.08;;;3.10;;
69197;SDS011;56311;50.298;8.514;2023-02-01T07:43:51;17.63;;;3.47;;
69197;SDS011;56311;50.298;8.514;2023-02-01T07:46:18;14.38;;;3.58;;
69197;SDS011;56311;50.298;8.514;2023-02-01T07:48:44;11.55;;;2.53;;
69197;SDS011;56311;50.298;8.514;2023-02-01T07:51:12;13.32;;;2.75;;
69197;SDS011;56311;50.298;8.514;2023-02-01T07:53:39;12.07;;;2.67;;
69197;SDS011;56311;50.298;8.514;2023-02-01T07:56:09;12.35;;;2.92;;
69197;SDS011;56311;50.298;8.514;2023-02-01T07:58:38;12.57;;;2.70;;
69197;SDS011;56311;50.298;8.514;2023-02-01T08:01:04;10.68;;;2.17;;
69197;SDS011;56311;50.298;8.514;2023-02-01T08:03:46;10.57;;;2.58;;
69197;SDS011;56311;50.298;8.514;2023-02-01T08:06:13;18.30;;;2.97;;
69197;SDS011;56311;50.298;8.514;2023-02-01T08:08:40;15.75;;;2.55;;
69197;SDS011;56311;50.298;8.514;2023-02-01T08:11:06;15.98;;;2.53;;
69197;SDS011;56311;50.298;8.514;2023-02-01T08:13:33;12.27;;;2.63;;
69197;SDS011;56311;50.298;8.514;2023-02-01T08:16:02;12.10;;;2.38;;
69197;SDS011;56311;50.298;8.514;2023-02-01T08:18:29;12.85;;;2.75;;
69197;SDS011;56311;50.298;8.514;2023-02-01T08:20:55;13.23;;;2.75;;
69197;SDS011;56311;50.298;8.514;2023-02-01T08:23:22;12.35;;;3.17;;
69197;SDS011;56311;50.298;8.514;2023-02-01T08:25:49;9.65;;;2.42;;
69197;SDS011;56311;50.298;8.514;2023-02-01T08:28:15;14.52;;;2.92;;
69197;SDS011;56311;50.298;8.514;2023-02-01T08:30:42;17.38;;;3.63;;
69197;SDS011;56311;50.298;8.514;2023-02-01T08:33:10;10.40;;;2.97;;
69197;SDS011;56311;50.298;8.514;2023-02-01T08:35:37;13.70;;;2.40;;
69197;SDS011;56311;50.298;8.514;2023-02-01T08:38:09;13.65;;;2.70;;
69197;SDS011;56311;50.298;8.514;2023-02-01T08:40:36;10.98;;;2.40;;
69197;SDS011;56311;50.298;8.514;2023-02-01T08:43:03;14.43;;;2.78;;
69197;SDS011;56311;50.298;8.514;2023-02-01T08:45:30;9.60;;;2.85;;
69197;SDS011;56311;50.298;8.514;2023-02-01T08:47:56;10.75;;;3.17;;
69197;SDS011;56311;50.298;8.514;2023-02-01T08:50:24;11.07;;;2.75;;
69197;SDS011;56311;50.298;8.514;2023-02-01T08:52:52;16.13;;;3.08;;
69197;SDS011;56311;50.298;8.514;2023-02-01T08:55:18;10.55;;;2.38;;
69197;SDS011;56311;50.298;8.514;2023-02-01T08:57:45;13.15;;;2.80;;
69197;SDS011;56311;50.298;8.514;2023-02-01T09:00:13;11.93;;;2.42;;
69197;SDS011;56311;50.298;8.514;2023-02-01T09:02:40;13.85;;;2.83;;
69197;SDS011;56311;50.298;8.514;2023-02-01T09:05:06;13.52;;;3.03;;
69197;SDS011;56311;50.298;8.514;2023-02-01T09:07:36;13.10;;;2.83;;
69197;SDS011;56311;50.298;8.514;2023-02-01T09:10:03;14.18;;;2.47;;
69197;SDS011;56311;50.298;8.514;2023-02-01T09:12:31;9.15;;;2.38;;
69197;SDS011;56311;50.298;8.514;2023-02-01T09:14:58;11.82;;;2.40;;
69197;SDS011;56311;50.298;8.514;2023-02-01T09:17:26;13.40;;;2.78;;
69197;SDS011;56311;50.298;8.514;2023-02-01T09:19:57;8.98;;;2.53;;
69197;SDS011;56311;50.298;8.514;2023-02-01T09:22:24;15.18;;;3.05;;
69197;SDS011;56311;50.298;8.514;2023-02-01T09:24:53;12.65;;;3.03;;
69197;SDS011;56311;50.298;8.514;2023-02-01T09:27:20;19.20;;;4.72;;
69197;SDS011;56311;50.298;8.514;2023-02-01T09:29:47;14.40;;;2.58;;
69197;SDS011;56311;50.298;8.514;2023-02-01T09:32:19;19.75;;;3.17;;
69197;SDS011;56311;50.298;8.514;2023-02-01T09:34:45;11.57;;;3.00;;
69197;SDS011;56311;50.298;8.514;2023-02-01T09:37:12;14.13;;;3.00;;
69197;SDS011;56311;50.298;8.514;2023-02-01T09:39:38;9.52;;;2.03;;
69197;SDS011;56311;50.298;8.514;2023-02-01T09:42:11;11.35;;;2.60;;
69197;SDS011;56311;50.298;8.514;2023-02-01T09:47:32;13.60;;;2.97;;
69197;SDS011;56311;50.298;8.514;2023-02-01T09:50:02;14.65;;;2.55;;
69197;SDS011;56311;50.298;8.514;2023-02-01T09:52:31;13.55;;;3.17;;
69197;SDS011;56311;50.298;8.514;2023-02-01T09:55:00;10.73;;;2.78;;
69197;SDS011;56311;50.298;8.514;2023-02-01T09:57:32;12.07;;;2.25;;
69197;SDS011;56311;50.298;8.514;2023-02-01T10:00:04;13.05;;;2.80;;
69197;SDS011;56311;50.298;8.514;2023-02-01T10:02:30;8.10;;;2.40;;
69197;SDS011;56311;50.298;8.514;2023-02-01T10:05:01;11.48;;;2.30;;
69197;SDS011;56311;50.298;8.514;2023-02-01T10:07:30;16.45;;;2.60;;
69197;SDS011;56311;50.298;8.514;2023-02-01T10:10:02;13.17;;;3.37;;
69197;SDS011;56311;50.298;8.514;2023-02-01T10:12:40;15.75;;;3.35;;
69197;SDS011;56311;50.298;8.514;2023-02-01T10:15:13;14.18;;;2.55;;
69197;SDS011;56311;50.298;8.514;2023-02-01T10:17:45;14.73;;;2.85;;
69197;SDS011;56311;50.298;8.514;2023-02-01T10:20:14;9.35;;;2.10;;
69197;SDS011;56311;50.298;8.514;2023-02-01T10:22:43;12.07;;;2.50;;
69197;SDS011;56311;50.298;8.514;2023-02-01T10:25:31;14.90;;;2.95;;
69197;SDS011;56311;50.298;8.514;2023-02-01T10:28:03;12.05;;;2.35;;
69197;SDS011;56311;50.298;8.514;2023-02-01T10:30:40;7.95;;;2.03;;
69197;SDS011;56311;50.298;8.514;2023-02-01T10:33:12;11.27;;;2.50;;
69197;SDS011;56311;50.298;8.514;2023-02-01T10:35:40;12.80;;;2.60;;
69197;SDS011;56311;50.298;8.514;2023-02-01T10:38:08;12.10;;;2.15;;
69197;SDS011;56311;50.298;8.514;2023-02-01T10:40:37;10.85;;;2.33;;
69197;SDS011;56311;50.298;8.514;2023-02-01T10:43:05;9.93;;;2.47;;
69197;SDS011;56311;50.298;8.514;2023-02-01T10:45:32;12.80;;;2.33;;
69197;SDS011;56311;50.298;8.514;2023-02-01T10:47:59;11.75;;;2.40;;
69197;SDS011;56311;50.298;8.514;2023-02-01T10:50:31;9.60;;;2.45;;
69197;SDS011;56311;50.298;8.514;2023-02-01T10:53:01;11.35;;;2.67;;
69197;SDS011;56311;50.298;8.514;2023-02-01T10:55:35;14.98;;;2.60;;
69197;SDS011;56311;50.298;8.514;2023-02-01T10:58:10;9.13;;;2.40;;
69197;SDS011;56311;50.298;8.514;2023-02-01T11:00:42;14.18;;;2.30;;
69197;SDS011;56311;50.298;8.514;2023-02-01T11:03:19;9.93;;;2.40;;
69197;SDS011;56311;50.298;8.514;2023-02-01T11:05:46;9.40;;;2.10;;
69197;SDS011;56311;50.298;8.514;2023-02-01T11:08:14;12.77;;;2.53;;
69197;SDS011;56311;50.298;8.514;2023-02-01T11:10:42;10.23;;;2.78;;
69197;SDS011;56311;50.298;8.514;2023-02-01T11:13:13;18.05;;;2.55;;
69197;SDS011;56311;50.298;8.514;2023-02-01T11:15:40;12.55;;;3.08;;
69197;SDS011;56311;50.298;8.514;2023-02-01T11:18:14;13.13;;;3.30;;
69197;SDS011;56311;50.298;8.514;2023-02-01T11:20:42;11.77;;;2.33;;
69197;SDS011;56311;50.298;8.514;2023-02-01T11:23:12;18.60;;;2.33;;
69197;SDS011;56311;50.298;8.514;2023-02-01T11:25:40;13.05;;;2.95;;
69197;SDS011;56311;50.298;8.514;2023-02-01T11:28:15;13.02;;;3.15;;
69197;SDS011;56311;50.298;8.514;2023-02-01T11:30:42;15.45;;;2.88;;
69197;SDS011;56311;50.298;8.514;2023-02-01T11:33:12;13.85;;;2.78;;
69197;SDS011;56311;50.298;8.514;2023-02-01T11:35:39;10.65;;;2.50;;
69197;SDS011;56311;50.298;8.514;2023-02-01T11:38:11;7.05;;;1.50;;
69197;SDS011;56311;50.298;8.514;2023-02-01T11:40:39;8.63;;;1.80;;
69197;SDS011;56311;50.298;8.514;2023-02-01T11:43:07;10.20;;;2.50;;
69197;SDS011;56311;50.298;8.514;2023-02-01T11:45:36;11.32;;;2.47;;
69197;SDS011;56311;50.298;8.514;2023-02-01T11:48:07;12.63;;;2.30;;
69197;SDS011;56311;50.298;8.514;2023-02-01T11:50:37;15.10;;;2.42;;
69197;SDS011;56311;50.298;8.514;2023-02-01T11:53:09;13.70;;;2.40;;
69197;SDS011;56311;50.298;8.514;2023-02-01T11:55:47;10.40;;;2.13;;
69197;SDS011;56311;50.298;8.514;2023-02-01T11:58:32;10.60;;;2.30;;
69197;SDS011;56311;50.298;8.514;2023-02-01T12:03:59;14.70;;;2.22;;
69197;SDS011;56311;50.298;8.514;2023-02-01T12:06:29;7.38;;;2.10;;
69197;SDS011;56311;50.298;8.514;2023-02-01T12:09:03;14.55;;;2.70;;
69197;SDS011;56311;50.298;8.514;2023-02-01T12:11:38;9.75;;;1.90;;
69197;SDS011;56311;50.298;8.514;2023-02-01T12:14:13;9.88;;;2.05;;
69197;SDS011;56311;50.298;8.514;2023-02-01T12:16:43;8.95;;;2.20;;
69197;SDS011;56311;50.298;8.514;2023-02-01T12:19:19;11.20;;;2.45;;
69197;SDS011;56311;50.298;8.514;2023-02-01T12:21:57;8.25;;;2.28;;
69197;SDS011;56311;50.298;8.514;2023-02-01T12:27:17;9.10;;;2.30;;
69197;SDS011;56311;50.298;8.514;2023-02-01T12:29:55;9.95;;;2.20;;
69197;SDS011;56311;50.298;8.514;2023-02-01T12:32:31;12.05;;;2.35;;
69197;SDS011;56311;50.298;8.514;2023-02-01T12:38:00;14.05;;;2.35;;
69197;SDS011;56311;50.298;8.514;2023-02-01T12:40:34;10.88;;;2.50;;
69197;SDS011;56311;50.298;8.514;2023-02-01T12:43:04;10.87;;;2.60;;
69197;SDS011;56311;50.298;8.514;2023-02-01T12:45:32;9.18;;;3.38;;
69197;SDS011;56311;50.298;8.514;2023-02-01T12:48:02;15.10;;;2.75;;
69197;SDS011;56311;50.298;8.514;2023-02-01T12:50:32;13.52;;;2.38;;
69197;SDS011;56311;50.298;8.514;2023-02-01T12:53:06;9.77;;;1.92;;
69197;SDS011;56311;50.298;8.514;2023-02-01T12:55:34;12.02;;;1.98;;
69197;SDS011;56311;50.298;8.514;2023-02-01T12:58:04;9.15;;;2.05;;
69197;SDS011;56311;50.298;8.514;2023-02-01T13:00:35;9.40;;;2.15;;
69197;SDS011;56311;50.298;8.514;2023-02-01T13:03:04;7.45;;;1.65;;
69197;SDS011;56311;50.298;8.514;2023-02-01T13:05:34;8.77;;;2.05;;
69197;SDS011;56311;50.298;8.514;2023-02-01T13:08:04;9.43;;;2.10;;
69197;SDS011;56311;50.298;8.514;2023-02-01T13:10:34;9.80;;;2.22;;
69197;SDS011;56311;50.298;8.514;2023-02-01T13:13:03;12.40;;;2.28;;
69197;SDS011;56311;50.298;8.514;2023-02-01T13:15:33;8.82;;;1.90;;
69197;SDS011;56311;50.298;8.514;2023-02-01T13:18:03;15.98;;;2.88;;
69197;SDS011;56311;50.298;8.514;2023-02-01T13:20:31;10.52;;;2.83;;
69197;SDS011;56311;50.298;8.514;2023-02-01T13:23:02;16.05;;;2.28;;
69197;SDS011;56311;50.298;8.514;2023-02-01T13:25:32;11.35;;;2.97;;
69197;SDS011;56311;50.298;8.514;2023-02-01T13:28:02;10.15;;;1.70;;
69197;SDS011;56311;50.298;8.514;2023-02-01T13:30:30;9.75;;;2.13;;
69197;SDS011;56311;50.298;8.514;2023-02-01T13:33:14;10.10;;;2.75;;
69197;SDS011;56311;50.298;8.514;2023-02-01T13:36:05;15.57;;;2.53;;
69197;SDS011;56311;50.298;8.514;2023-02-01T13:41:27;11.85;;;2.42;;
69197;SDS011;56311;50.298;8.514;2023-02-01T13:43:55;12.18;;;2.13;;
69197;SDS011;56311;50.298;8.514;2023-02-01T13:46:22;12.70;;;2.42;;
69197;SDS011;56311;50.298;8.514;2023-02-01T13:48:50;8.95;;;1.88;;
69197;SDS011;56311;50.298;8.514;2023-02-01T13:51:17;10.48;;;2.47;;
69197;SDS011;56311;50.298;8.514;2023-02-01T13:53:55;13.52;;;2.10;;
69197;SDS011;56311;50.298;8.514;2023-02-01T13:56:21;12.52;;;2.05;;
69197;SDS011;56311;50.298;8.514;2023-02-01T13:58:50;13.75;;;2.20;;
69197;SDS011;56311;50.298;8.514;2023-02-01T14:01:33;13.05;;;2.33;;
69197;SDS011;56311;50.298;8.514;2023-02-01T14:04:01;12.18;;;2.38;;
69197;SDS011;56311;50.298;8.514;2023-02-01T14:06:38;13.55;;;2.45;;
69197;SDS011;56311;50.298;8.514;2023-02-01T14:09:13;7.18;;;1.88;;
69197;SDS011;56311;50.298;8.514;2023-02-01T14:11:43;10.57;;;2.13;;
69197;SDS011;56311;50.298;8.514;2023-02-01T14:22:48;12.93;;;2.20;;
69197;SDS011;56311;50.298;8.514;2023-02-01T14:25:16;14.40;;;2.20;;
69197;SDS011;56311;50.298;8.514;2023-02-01T14:27:43;14.40;;;2.63;;
69197;SDS011;56311;50.298;8.514;2023-02-01T14:30:11;8.18;;;2.05;;
69197;SDS011;56311;50.298;8.514;2023-02-01T14:32:40;10.45;;;2.20;;
69197;SDS011;56311;50.298;8.514;2023-02-01T14:35:16;9.20;;;1.80;;
69197;SDS011;56311;50.298;8.514;2023-02-01T14:37:45;13.85;;;2.30;;
69197;SDS011;56311;50.298;8.514;2023-02-01T14:40:16;13.73;;;2.03;;
69197;SDS011;56311;50.298;8.514;2023-02-01T14:42:46;7.32;;;1.48;;
69197;SDS011;56311;50.298;8.514;2023-02-01T14:50:39;13.65;;;1.92;;
69197;SDS011;56311;50.298;8.514;2023-02-01T14:55:53;10.20;;;2.58;;
69197;SDS011;56311;50.298;8.514;2023-02-01T14:58:31;11.77;;;2.28;;
69197;SDS011;56311;50.298;8.514;2023-02-01T15:00:59;10.32;;;1.80;;
69197;SDS011;56311;50.298;8.514;2023-02-01T15:03:39;9.48;;;2.10;;
69197;SDS011;56311;50.298;8.514;2023-02-01T15:09:01;10.15;;;1.85;;
69197;SDS011;56311;50.298;8.514;2023-02-01T15:11:29;10.25;;;1.90;;
69197;SDS011;56311;50.298;8.514;2023-02-01T15:13:56;11.60;;;1.95;;
69197;SDS011;56311;50.298;8.514;2023-02-01T15:16:24;11.65;;;2.38;;
69197;SDS011;56311;50.298;8.514;2023-02-01T15:19:06;10.65;;;2.13;;
69197;SDS011;56311;50.298;8.514;2023-02-01T15:21:42;8.38;;;1.60;;
69197;SDS011;56311;50.298;8.514;2023-02-01T15:24:10;12.18;;;2.10;;
69197;SDS011;56311;50.298;8.514;2023-02-01T15:26:39;10.13;;;2.13;;
69197;SDS011;56311;50.298;8.514;2023-02-01T15:29:09;13.65;;;2.55;;
69197;SDS011;56311;50.298;8.514;2023-02-01T15:31:36;8.30;;;2.05;;